Time;durP1;ratioP1;P1;durP2;ratioP2;P2;SDS_P1;SDS_P2;PMS_P1;PMS_P2;Temp;Humidity;BMP_temperature;BMP_pressure;BME280_temperature;BME280_humidity;BME280_pressure;Samples;Min_cycle;Max_cycle;Signal;HPM_P1;HPM_P2
2022/05/03 00:01:02;;;;;;;7.13;6.40;;;11.60;99.90;;;;;;5037777;28;20296;-72
2022/05/03 00:03:38;;;;;;;8.23;6.70;;;11.60;99.90;;;;;;5033488;28;20195;-70
2022/05/03 00:06:35;;;;;;;6.83;6.23;;;11.60;99.90;;;;;;5035562;28;20187;-68
2022/05/03 00:09:08;;;;;;;9.43;6.53;;;11.70;99.90;;;;;;5031429;28;20215;-71
2022/05/03 00:11:45;;;;;;;9.47;6.73;;;11.70;99.90;;;;;;5035023;28;20230;-72
2022/05/03 00:14:55;;;;;;;7.90;6.57;;;11.70;99.90;;;;;;5035453;28;20718;-71
2022/05/03 00:17:22;;;;;;;7.03;6.33;;;11.70;99.90;;;;;;5016611;28;20270;-71
2022/05/03 00:19:48;;;;;;;7.50;6.07;;;11.70;99.90;;;;;;5031062;28;20260;-71
2022/05/03 00:22:14;;;;;;;7.00;6.30;;;11.70;99.90;;;;;;5034453;28;20665;-73
2022/05/03 00:24:41;;;;;;;7.47;6.77;;;11.70;99.90;;;;;;5034854;28;20186;-73
2022/05/03 00:27:06;;;;;;;8.60;6.20;;;11.60;99.40;;;;;;5036256;28;20206;-72
2022/05/03 00:29:33;;;;;;;9.23;6.73;;;11.70;99.20;;;;;;5027034;28;20177;-72
2022/05/03 00:32:03;;;;;;;7.73;7.07;;;11.70;99.10;;;;;;5040933;28;20197;-72
2022/05/03 00:34:33;;;;;;;6.90;6.13;;;11.70;99.20;;;;;;5034983;28;20243;-72
2022/05/03 00:36:59;;;;;;;6.87;6.13;;;11.70;98.80;;;;;;5038263;28;20480;-72
2022/05/03 00:39:24;;;;;;;7.27;6.33;;;11.70;99.00;;;;;;5033286;28;20684;-63
2022/05/03 00:42:01;;;;;;;7.73;6.43;;;11.60;98.50;;;;;;5036272;28;20198;-64
2022/05/03 00:45:00;;;;;;;7.37;6.50;;;11.70;98.30;;;;;;5032806;28;20234;-63
2022/05/03 00:47:53;;;;;;;7.13;6.50;;;11.70;98.40;;;;;;5033889;28;20198;-64
2022/05/03 00:50:28;;;;;;;6.47;5.63;;;11.70;98.00;;;;;;5034293;28;20172;-64
2022/05/03 00:53:22;;;;;;;8.13;6.47;;;11.60;98.00;;;;;;5034862;28;20285;-69
2022/05/03 00:55:59;;;;;;;6.93;6.23;;;11.60;97.90;;;;;;5046753;28;20360;-65
2022/05/03 00:59:07;;;;;;;7.33;6.33;;;11.50;98.00;;;;;;5033434;28;20209;-66
2022/05/03 01:02:01;;;;;;;6.87;6.27;;;11.50;97.90;;;;;;5026108;28;20284;-66
2022/05/03 01:05:12;;;;;;;7.30;6.60;;;11.50;98.20;;;;;;5029509;28;20217;-66
2022/05/03 01:07:50;;;;;;;7.70;6.80;;;11.40;98.20;;;;;;5047767;28;20949;-69
2022/05/03 01:10:35;;;;;;;7.37;6.67;;;11.40;98.50;;;;;;5033171;28;20229;-67
2022/05/03 01:13:19;;;;;;;7.23;6.53;;;11.40;98.50;;;;;;5032594;28;20207;-67
2022/05/03 01:15:51;;;;;;;8.23;7.27;;;11.30;98.50;;;;;;5024549;28;20364;-67
2022/05/03 01:18:39;;;;;;;7.27;6.60;;;11.20;99.10;;;;;;5039784;28;20690;-67
2022/05/03 01:21:24;;;;;;;7.70;6.87;;;11.20;98.80;;;;;;5024907;28;20187;-68
2022/05/03 01:24:18;;;;;;;7.13;6.17;;;11.20;98.80;;;;;;5024707;28;20252;-67
2022/05/03 01:27:03;;;;;;;7.50;6.23;;;11.10;98.80;;;;;;5024921;28;20215;-66
2022/05/03 01:29:30;;;;;;;7.40;6.77;;;11.00;98.90;;;;;;5041504;28;20208;-66
2022/05/03 01:31:59;;;;;;;7.33;6.00;;;10.90;99.20;;;;;;5063456;28;20217;-80
2022/05/03 01:34:27;;;;;;;6.50;5.80;;;10.90;99.50;;;;;;5033512;28;20241;-77
2022/05/03 01:37:19;;;;;;;7.83;6.00;;;10.90;99.30;;;;;;5055500;28;20203;-66
2022/05/03 01:40:06;;;;;;;8.93;6.13;;;10.90;99.00;;;;;;5039417;28;20270;-84
2022/05/03 01:42:49;;;;;;;6.90;6.20;;;11.00;98.90;;;;;;5033453;28;20197;-78
2022/05/03 01:45:30;;;;;;;9.03;6.47;;;11.00;99.00;;;;;;5032486;28;20284;-81
2022/05/03 01:48:09;;;;;;;7.73;6.50;;;11.00;98.80;;;;;;5032616;28;20202;-80
2022/05/03 01:50:53;;;;;;;6.10;5.60;;;11.00;98.60;;;;;;5031648;28;20247;-80
2022/05/03 01:53:27;;;;;;;8.90;5.70;;;11.00;98.40;;;;;;5023267;28;20263;-81
2022/05/03 01:56:18;;;;;;;6.43;5.83;;;10.90;98.60;;;;;;5037072;28;20221;-80
2022/05/03 01:59:20;;;;;;;7.60;6.23;;;10.90;98.70;;;;;;5033603;28;20207;-81
2022/05/03 02:02:00;;;;;;;9.20;6.37;;;10.90;99.40;;;;;;5038020;28;20191;-80
2022/05/03 02:07:08;;;;;;;11.07;7.10;;;10.70;99.10;;;;;;5085325;23;20248;-74
2022/05/03 02:09:58;;;;;;;6.70;6.10;;;10.70;99.00;;;;;;4979144;28;20736;-70
2022/05/03 02:12:24;;;;;;;8.13;7.33;;;10.70;99.20;;;;;;4974592;28;20195;-70
2022/05/03 02:14:55;;;;;;;9.47;6.83;;;10.60;99.10;;;;;;4975689;28;20215;-70
2022/05/03 02:17:40;;;;;;;6.50;5.90;;;10.60;99.10;;;;;;4967533;28;20197;-83
2022/05/03 02:20:28;;;;;;;9.13;7.43;;;10.70;99.10;;;;;;4981914;28;20294;-78
2022/05/03 02:23:22;;;;;;;6.83;6.27;;;10.60;99.10;;;;;;4965628;28;20193;-79
2022/05/03 02:26:18;;;;;;;7.63;6.80;;;10.60;99.20;;;;;;4970313;28;20301;-67
2022/05/03 02:29:11;;;;;;;7.27;6.27;;;10.60;99.60;;;;;;4968470;28;20279;-79
2022/05/03 02:31:37;;;;;;;9.23;7.23;;;10.60;99.50;;;;;;4970598;28;20205;-77
2022/05/03 02:34:24;;;;;;;8.37;7.50;;;10.60;99.40;;;;;;4965399;28;20205;-80
2022/05/03 02:37:11;;;;;;;7.83;7.00;;;10.50;99.60;;;;;;4971325;28;20572;-78
2022/05/03 02:39:43;;;;;;;9.97;7.07;;;10.50;99.90;;;;;;4962364;28;20805;-79
2022/05/03 02:42:11;;;;;;;11.00;6.60;;;10.40;99.80;;;;;;4966632;28;20345;-78
2022/05/03 02:44:39;;;;;;;10.47;7.33;;;10.40;99.90;;;;;;4974697;28;20196;-83
2022/05/03 02:47:05;;;;;;;7.37;6.67;;;10.30;99.90;;;;;;4974543;28;20292;-84
2022/05/03 02:49:57;;;;;;;9.53;7.40;;;10.30;99.90;;;;;;5004030;28;20251;-84
2022/05/03 02:52:42;;;;;;;8.10;6.83;;;10.30;99.90;;;;;;4967468;28;20260;-86
2022/05/03 02:55:18;;;;;;;7.57;6.87;;;10.30;99.90;;;;;;5143613;23;20216;-83
2022/05/03 02:57:57;;;;;;;9.77;6.37;;;10.20;99.90;;;;;;5000702;23;20340;-77
2022/05/03 03:03:25;;;;;;;9.23;7.40;;;10.10;99.90;;;;;;5052122;23;20303;-82
2022/05/03 03:05:59;;;;;;;15.83;8.33;;;10.00;99.90;;;;;;5004398;28;20189;-83
2022/05/03 03:08:30;;;;;;;7.17;6.43;;;10.10;99.90;;;;;;5012139;23;20684;-83
2022/05/03 03:11:05;;;;;;;9.13;6.63;;;10.10;99.90;;;;;;4974612;28;20199;-82
2022/05/03 03:13:54;;;;;;;8.53;6.37;;;10.00;99.90;;;;;;4991802;28;20253;-82
2022/05/03 03:16:31;;;;;;;8.70;6.77;;;9.90;99.90;;;;;;4983305;28;20217;-81
2022/05/03 03:18:58;;;;;;;10.20;6.17;;;9.90;99.90;;;;;;4984864;28;20528;-81
2022/05/03 03:21:31;;;;;;;9.23;7.20;;;10.00;99.90;;;;;;4982840;28;20199;-80
2022/05/03 03:23:59;;;;;;;7.67;5.90;;;9.90;99.90;;;;;;4973608;28;20249;-81
2022/05/03 03:26:29;;;;;;;13.23;9.20;;;9.90;99.90;;;;;;4989677;28;20218;-80
2022/05/03 03:28:57;;;;;;;7.90;6.50;;;10.00;99.90;;;;;;4964776;28;20576;-80
2022/05/03 03:31:23;;;;;;;7.13;6.43;;;9.90;99.90;;;;;;4997471;28;20193;-83
2022/05/03 03:33:49;;;;;;;6.73;6.03;;;9.90;99.90;;;;;;4965423;28;20215;-83
2022/05/03 03:36:15;;;;;;;7.97;6.80;;;9.90;99.90;;;;;;4978203;28;20306;-78
2022/05/03 03:38:47;;;;;;;9.37;7.30;;;9.90;99.90;;;;;;4960751;28;20286;-76
2022/05/03 03:41:12;;;;;;;7.93;5.73;;;9.90;99.90;;;;;;4973171;28;20230;-84
2022/05/03 03:43:38;;;;;;;9.47;7.23;;;9.90;99.90;;;;;;5268044;23;20240;-86
2022/05/03 03:46:03;;;;;;;7.67;6.87;;;9.90;99.90;;;;;;4973015;28;20197;-85
2022/05/03 03:48:30;;;;;;;8.90;6.60;;;9.90;99.90;;;;;;4988093;28;20213;-70
2022/05/03 03:50:56;;;;;;;8.30;6.87;;;9.90;99.90;;;;;;4981738;28;20280;-78
2022/05/03 03:53:22;;;;;;;9.00;7.37;;;9.90;99.90;;;;;;4977244;28;20209;-78
2022/05/03 03:55:49;;;;;;;8.90;7.47;;;9.90;99.90;;;;;;4980613;28;20747;-78
2022/05/03 03:58:15;;;;;;;11.87;7.70;;;9.90;99.90;;;;;;4978150;28;20796;-67
2022/05/03 04:00:41;;;;;;;8.23;6.60;;;9.80;99.90;;;;;;4980687;28;20660;-69
2022/05/03 04:03:07;;;;;;;8.13;6.80;;;9.80;99.90;;;;;;4974679;28;20203;-70
2022/05/03 04:05:35;;;;;;;6.77;6.07;;;9.80;99.90;;;;;;4984256;28;20213;-68
2022/05/03 04:08:00;;;;;;;7.80;6.47;;;9.90;99.90;;;;;;4979029;28;20235;-69
2022/05/03 04:10:26;;;;;;;9.43;7.07;;;9.90;99.90;;;;;;4980365;28;20229;-69
2022/05/03 04:12:51;;;;;;;10.63;7.40;;;10.00;99.90;;;;;;4976149;28;20195;-69
2022/05/03 04:15:17;;;;;;;7.97;6.33;;;10.00;99.90;;;;;;4976844;28;20258;-69
2022/05/03 04:17:43;;;;;;;8.73;7.63;;;10.10;99.90;;;;;;4977220;28;20225;-69
2022/05/03 04:20:10;;;;;;;10.63;7.03;;;10.10;99.90;;;;;;4974650;28;20761;-69
2022/05/03 04:22:36;;;;;;;8.83;7.00;;;10.20;99.90;;;;;;4975870;28;20202;-69
2022/05/03 04:25:04;;;;;;;7.83;6.73;;;10.20;99.90;;;;;;4967442;28;20614;-69
2022/05/03 04:27:30;;;;;;;8.90;7.00;;;10.30;99.90;;;;;;4973377;28;20257;-69
2022/05/03 04:29:56;;;;;;;8.93;6.87;;;10.20;99.90;;;;;;4955628;28;20753;-69
2022/05/03 04:32:22;;;;;;;8.90;7.57;;;10.20;99.90;;;;;;4977315;28;20697;-68
2022/05/03 04:34:48;;;;;;;8.70;7.00;;;10.30;99.90;;;;;;4948349;28;20291;-68
2022/05/03 04:37:14;;;;;;;9.73;7.53;;;10.40;99.90;;;;;;4978721;28;20190;-67
2022/05/03 04:39:40;;;;;;;10.33;7.37;;;10.50;99.90;;;;;;4953311;28;20497;-67
2022/05/03 04:42:07;;;;;;;10.30;7.40;;;10.50;99.90;;;;;;4975835;28;20223;-69
2022/05/03 04:44:32;;;;;;;8.90;7.20;;;10.50;99.90;;;;;;4956260;28;20224;-69
2022/05/03 04:46:58;;;;;;;9.57;7.23;;;10.50;99.90;;;;;;4976910;28;20699;-68
2022/05/03 04:49:23;;;;;;;11.07;8.07;;;10.50;99.90;;;;;;4958250;28;20262;-68
2022/05/03 04:51:49;;;;;;;10.80;8.80;;;10.50;99.90;;;;;;4981975;28;20196;-68
2022/05/03 04:54:14;;;;;;;9.23;6.80;;;10.60;99.90;;;;;;4957753;28;20298;-68
2022/05/03 04:56:49;;;;;;;9.17;7.13;;;10.70;99.90;;;;;;4982198;28;20258;-69
2022/05/03 04:59:15;;;;;;;11.70;7.40;;;10.70;99.90;;;;;;4949343;28;20554;-68
2022/05/03 05:01:40;;;;;;;8.77;6.57;;;10.80;99.90;;;;;;4978784;28;20207;-69
2022/05/03 05:04:05;;;;;;;8.67;6.40;;;10.80;99.90;;;;;;4959090;28;20546;-69
2022/05/03 05:06:31;;;;;;;9.27;6.37;;;10.90;99.90;;;;;;4975693;28;20198;-69
2022/05/03 05:08:56;;;;;;;12.17;7.53;;;10.90;99.90;;;;;;4960114;28;20212;-69
2022/05/03 05:11:22;;;;;;;9.27;6.30;;;10.90;99.90;;;;;;4968717;28;20613;-68
2022/05/03 05:13:47;;;;;;;9.10;7.07;;;11.00;99.90;;;;;;4973772;28;20208;-68
2022/05/03 05:16:13;;;;;;;12.53;7.77;;;11.00;99.90;;;;;;4968623;28;20213;-69
2022/05/03 05:18:39;;;;;;;13.30;9.23;;;11.10;99.90;;;;;;4975633;28;20612;-68
2022/05/03 05:21:04;;;;;;;10.73;7.73;;;11.20;99.90;;;;;;4967217;28;20288;-68
2022/05/03 05:23:30;;;;;;;9.43;6.87;;;11.20;99.90;;;;;;4958361;28;20265;-68
2022/05/03 05:25:56;;;;;;;14.13;7.73;;;11.20;99.80;;;;;;4971979;28;20291;-68
2022/05/03 05:28:23;;;;;;;8.97;7.20;;;11.30;99.90;;;;;;4960704;28;20304;-68
2022/05/03 05:30:51;;;;;;;9.50;7.77;;;11.40;99.70;;;;;;4959432;28;20380;-69
2022/05/03 05:33:17;;;;;;;9.37;6.93;;;11.50;99.90;;;;;;4977173;28;20738;-68
2022/05/03 05:35:43;;;;;;;9.07;7.43;;;11.50;99.90;;;;;;4966531;28;20213;-68
2022/05/03 05:38:13;;;;;;;7.80;6.97;;;11.50;99.30;;;;;;4964616;28;20705;-68
2022/05/03 05:40:39;;;;;;;10.63;6.63;;;11.60;99.20;;;;;;4956367;28;20261;-68
2022/05/03 05:43:04;;;;;;;8.03;6.70;;;11.60;98.40;;;;;;4964069;28;20275;-69
2022/05/03 05:45:30;;;;;;;9.07;6.17;;;11.70;98.10;;;;;;4956275;28;20276;-69
2022/05/03 05:47:56;;;;;;;7.20;5.77;;;11.80;98.00;;;;;;4965934;28;20297;-69
2022/05/03 05:50:22;;;;;;;9.23;6.40;;;11.80;98.00;;;;;;4951351;28;20181;-69
2022/05/03 05:55:32;;;;;;;5.73;5.23;;;11.80;97.30;;;;;;4952465;28;20221;-69
2022/05/03 05:57:57;;;;;;;10.70;5.60;;;11.90;97.10;;;;;;4973404;28;20195;-69
2022/05/03 06:00:23;;;;;;;10.83;5.77;;;12.00;96.60;;;;;;4950004;28;20185;-68
2022/05/03 06:02:48;;;;;;;9.73;5.83;;;12.20;96.50;;;;;;4980741;28;20178;-69
2022/05/03 06:05:14;;;;;;;5.77;5.20;;;12.20;96.10;;;;;;4965972;28;20196;-68
2022/05/03 06:07:39;;;;;;;5.93;5.27;;;12.20;95.70;;;;;;4974702;28;20194;-69
2022/05/03 06:10:05;;;;;;;7.13;4.87;;;12.20;95.90;;;;;;4952805;28;20204;-69
2022/05/03 06:12:31;;;;;;;5.67;4.63;;;12.30;95.00;;;;;;4975054;28;20209;-69
2022/05/03 06:14:57;;;;;;;7.83;4.40;;;12.30;95.30;;;;;;4959782;28;20206;-67
2022/05/03 06:17:22;;;;;;;5.57;4.07;;;12.40;95.00;;;;;;4964896;28;20206;-68
2022/05/03 06:19:48;;;;;;;6.23;4.47;;;12.50;94.60;;;;;;4956328;28;20229;-68
2022/05/03 06:22:14;;;;;;;3.80;3.40;;;12.50;94.10;;;;;;4972142;28;20255;-68
2022/05/03 06:24:39;;;;;;;8.10;3.87;;;12.50;92.80;;;;;;4954972;28;20209;-68
2022/05/03 06:27:05;;;;;;;5.30;3.70;;;12.40;92.50;;;;;;4973916;28;20214;-67
2022/05/03 06:29:32;;;;;;;2.37;2.17;;;12.40;91.80;;;;;;4957249;28;20708;-68
2022/05/03 06:31:59;;;;;;;6.23;3.87;;;12.40;90.90;;;;;;4970822;28;20564;-67
2022/05/03 06:34:25;;;;;;;4.30;2.80;;;12.50;90.20;;;;;;4967225;28;20240;-69
2022/05/03 06:36:51;;;;;;;2.70;2.40;;;12.50;90.30;;;;;;4967850;28;20217;-69
2022/05/03 06:39:16;;;;;;;4.10;2.03;;;12.50;90.00;;;;;;4960028;28;20233;-69
2022/05/03 06:41:42;;;;;;;5.33;3.30;;;12.50;90.10;;;;;;4969051;28;20200;-69
2022/05/03 06:44:07;;;;;;;4.23;2.20;;;12.50;88.90;;;;;;4957426;28;20243;-69
2022/05/03 06:46:33;;;;;;;2.23;2.03;;;12.60;88.00;;;;;;4973824;28;20288;-69
2022/05/03 06:48:58;;;;;;;2.53;2.33;;;12.80;87.90;;;;;;4954643;28;20545;-69
2022/05/03 06:51:24;;;;;;;2.77;1.93;;;12.80;87.70;;;;;;4971931;28;20208;-69
2022/05/03 06:53:49;;;;;;;5.37;2.70;;;12.90;87.50;;;;;;4962531;28;20850;-69
2022/05/03 06:56:15;;;;;;;16.20;12.00;;;13.10;86.20;;;;;;4984016;28;20269;-69
2022/05/03 06:58:41;;;;;;;3.47;2.43;;;13.10;87.00;;;;;;4953175;28;20216;-69
2022/05/03 07:01:11;;;;;;;5.70;3.90;;;13.20;85.80;;;;;;4971256;28;20289;-68
2022/05/03 07:03:38;;;;;;;3.03;2.60;;;13.20;85.50;;;;;;4955468;28;20604;-69
2022/05/03 07:06:04;;;;;;;3.10;2.00;;;13.20;84.60;;;;;;4959867;28;20289;-68
2022/05/03 07:08:30;;;;;;;2.50;1.97;;;13.20;85.20;;;;;;4965562;28;20233;-69
2022/05/03 07:10:56;;;;;;;2.10;1.90;;;13.20;85.40;;;;;;4974337;28;20212;-69
2022/05/03 07:13:23;;;;;;;4.57;2.20;;;13.20;84.80;;;;;;4962928;28;20206;-69
2022/05/03 07:15:50;;;;;;;4.27;2.40;;;13.40;86.30;;;;;;4962030;28;20205;-67
2022/05/03 07:23:44;;;;;;;2.03;1.93;;;13.40;84.00;;;;;;4977158;28;20263;-68
2022/05/03 07:26:09;;;;;;;3.67;2.07;;;13.70;84.70;;;;;;4981125;28;20221;-68
2022/05/03 07:28:35;;;;;;;4.80;2.50;;;13.90;83.40;;;;;;4975664;28;20221;-68
2022/05/03 07:31:00;;;;;;;4.07;2.73;;;13.80;83.20;;;;;;4973783;28;20205;-68
2022/05/03 07:33:26;;;;;;;3.07;2.83;;;13.80;82.30;;;;;;4972618;28;20332;-68
2022/05/03 07:35:51;;;;;;;2.30;1.97;;;13.80;82.40;;;;;;4957492;28;20217;-69
2022/05/03 07:38:17;;;;;;;4.17;2.80;;;13.90;82.30;;;;;;4962757;28;20733;-70
2022/05/03 07:40:42;;;;;;;6.70;3.13;;;13.80;82.50;;;;;;4957953;28;20201;-70
2022/05/03 07:43:08;;;;;;;4.53;2.67;;;13.80;84.90;;;;;;4965001;28;20655;-70
2022/05/03 07:45:33;;;;;;;3.73;2.53;;;13.80;84.90;;;;;;4955044;28;20177;-70
2022/05/03 07:47:59;;;;;;;4.03;2.13;;;14.00;83.50;;;;;;4975298;28;20198;-70
2022/05/03 07:50:24;;;;;;;3.30;2.50;;;14.10;82.50;;;;;;4959487;28;20190;-70
2022/05/03 07:52:50;;;;;;;3.17;2.53;;;14.10;81.00;;;;;;4969941;28;20255;-69
2022/05/03 07:55:15;;;;;;;4.27;2.60;;;14.20;80.50;;;;;;4956365;28;20213;-70
2022/05/03 07:57:41;;;;;;;2.70;2.50;;;14.20;80.20;;;;;;4983750;28;20189;-69
2022/05/03 08:00:08;;;;;;;35.03;25.70;;;14.40;80.20;;;;;;4965708;28;20663;-69
2022/05/03 08:02:33;;;;;;;4.20;2.87;;;14.40;81.10;;;;;;4978236;28;20198;-68
2022/05/03 08:04:59;;;;;;;2.87;2.17;;;14.10;80.30;;;;;;4959796;28;20186;-69
2022/05/03 08:07:25;;;;;;;4.10;2.57;;;14.00;81.60;;;;;;4980588;28;20256;-70
2022/05/03 08:09:51;;;;;;;2.20;1.93;;;14.10;81.30;;;;;;4954512;28;20202;-69
2022/05/03 08:12:16;;;;;;;4.47;2.73;;;14.10;81.70;;;;;;4979030;28;20344;-69
2022/05/03 08:14:42;;;;;;;3.47;2.27;;;14.30;81.50;;;;;;4960123;28;20293;-70
2022/05/03 08:17:08;;;;;;;3.90;2.07;;;14.40;80.70;;;;;;4983943;28;20201;-68
2022/05/03 08:19:34;;;;;;;4.73;2.13;;;14.40;79.60;;;;;;4966563;28;20229;-68
2022/05/03 08:21:59;;;;;;;4.63;2.93;;;14.50;78.50;;;;;;4980161;28;20193;-70
2022/05/03 08:24:25;;;;;;;5.90;3.30;;;14.30;77.90;;;;;;4960696;28;20210;-70
2022/05/03 08:26:52;;;;;;;4.10;2.33;;;14.10;78.60;;;;;;4973674;28;20284;-69
2022/05/03 08:29:18;;;;;;;3.47;2.30;;;14.20;79.20;;;;;;4966108;28;20318;-68
2022/05/03 08:31:43;;;;;;;5.70;2.83;;;14.40;79.20;;;;;;4970789;28;20287;-69
2022/05/03 08:34:10;;;;;;;7.40;2.60;;;14.80;78.30;;;;;;4958287;28;20208;-68
2022/05/03 08:36:35;;;;;;;3.13;2.70;;;14.90;77.10;;;;;;4975215;28;20293;-67
2022/05/03 08:44:30;;;;;;;2.80;2.60;;;14.80;77.70;;;;;;4969034;28;20768;-68
2022/05/03 08:46:58;;;;;;;2.83;2.40;;;14.60;77.50;;;;;;4971110;28;20207;-69
2022/05/03 08:49:25;;;;;;;3.10;2.40;;;14.40;77.50;;;;;;4964970;28;20349;-68
2022/05/03 08:51:52;;;;;;;3.07;2.77;;;14.60;76.50;;;;;;4973529;28;20225;-69
2022/05/03 08:54:18;;;;;;;3.00;1.73;;;14.70;77.00;;;;;;4954492;28;20210;-69
2022/05/03 08:56:43;;;;;;;2.63;1.93;;;14.70;75.80;;;;;;4977666;28;20221;-69
2022/05/03 08:59:09;;;;;;;2.33;2.00;;;14.70;76.30;;;;;;4970840;28;20209;-69
2022/05/03 09:01:36;;;;;;;3.17;2.20;;;14.80;75.80;;;;;;4982362;28;20629;-67
2022/05/03 09:04:02;;;;;;;2.07;1.93;;;14.70;74.90;;;;;;4960388;28;20254;-68
2022/05/03 09:06:44;;;;;;;1.83;1.73;;;14.60;75.00;;;;;;4966554;28;20217;-68
2022/05/03 09:09:12;;;;;;;2.13;1.90;;;14.90;75.30;;;;;;4945845;28;20242;-69
2022/05/03 09:11:49;;;;;;;2.40;2.20;;;15.10;74.70;;;;;;4971300;28;20236;-71
2022/05/03 09:14:37;;;;;;;2.70;1.90;;;14.90;74.40;;;;;;4966700;28;20210;-68
2022/05/03 09:17:04;;;;;;;3.17;2.10;;;14.70;75.70;;;;;;4968439;28;20516;-70
2022/05/03 09:19:30;;;;;;;2.37;2.10;;;14.90;75.20;;;;;;4957473;28;20204;-71
2022/05/03 09:24:54;;;;;;;3.03;2.23;;;15.00;74.80;;;;;;4962682;28;20317;-69
2022/05/03 09:27:21;;;;;;;2.83;2.63;;;15.10;75.30;;;;;;4977100;28;21098;-67
2022/05/03 09:30:02;;;;;;;2.53;2.10;;;15.40;74.00;;;;;;4955219;28;20222;-67
2022/05/03 09:32:35;;;;;;;3.97;2.33;;;15.60;75.50;;;;;;4959886;28;20248;-70
2022/05/03 09:35:02;;;;;;;2.17;1.80;;;15.70;73.70;;;;;;4951733;28;20244;-69
2022/05/03 09:37:41;;;;;;;2.47;1.90;;;15.80;73.70;;;;;;4975736;28;20848;-70
2022/05/03 09:40:08;;;;;;;3.50;1.70;;;15.70;74.60;;;;;;4953213;28;20284;-71
2022/05/03 09:42:40;;;;;;;1.90;1.80;;;15.80;71.90;;;;;;4963274;28;20212;-68
2022/05/03 09:45:08;;;;;;;5.00;2.40;;;15.80;71.20;;;;;;4957985;28;20228;-69
2022/05/03 09:47:56;;;;;;;2.57;2.00;;;15.80;71.50;;;;;;4973062;28;20197;-70
2022/05/03 09:50:29;;;;;;;1.67;1.57;;;15.90;71.60;;;;;;4954929;28;20728;-68
2022/05/03 09:53:07;;;;;;;3.00;1.50;;;16.00;72.00;;;;;;4967867;28;20202;-69
2022/05/03 09:55:36;;;;;;;3.47;2.00;;;16.20;70.30;;;;;;4955478;28;20612;-70
2022/05/03 09:58:04;;;;;;;3.33;1.90;;;16.10;69.80;;;;;;4976642;28;20233;-69
2022/05/03 10:00:31;;;;;;;2.23;1.87;;;16.10;70.20;;;;;;4963313;28;20202;-70
2022/05/03 10:02:59;;;;;;;1.80;1.67;;;16.20;72.50;;;;;;4956285;28;20201;-70
2022/05/03 10:05:25;;;;;;;3.13;1.70;;;16.10;69.80;;;;;;4956385;28;20682;-69
2022/05/03 10:07:52;;;;;;;2.03;1.50;;;16.40;70.50;;;;;;4959385;28;20197;-68
2022/05/03 10:10:19;;;;;;;4.30;1.90;;;16.60;69.30;;;;;;4958375;28;20205;-75
2022/05/03 10:12:47;;;;;;;18.23;12.77;;;16.50;67.20;;;;;;4981217;28;20200;-68
2022/05/03 10:20:35;;;;;;;7.00;4.13;;;16.70;68.10;;;;;;4966024;28;20269;-69
2022/05/03 10:20:47;;;;;;;1.63;1.53;;;16.80;65.30;;;;;;4957905;28;20661;-69
2022/05/03 10:23:25;;;;;;;3.40;1.97;;;16.80;64.50;;;;;;4963270;28;20674;-70
2022/05/03 10:25:59;;;;;;;1.50;1.40;;;16.60;65.30;;;;;;4956409;28;20210;-69
2022/05/03 10:28:26;;;;;;;5.60;1.53;;;16.60;66.10;;;;;;4969995;28;20710;-70
2022/05/03 10:31:11;;;;;;;1.67;1.57;;;16.90;64.60;;;;;;4957390;28;20182;-68
2022/05/03 10:33:37;;;;;;;46.13;36.30;;;16.70;64.50;;;;;;4969189;28;20233;-68
2022/05/03 10:36:32;;;;;;;1.60;1.27;;;16.80;65.60;;;;;;4984117;28;20209;-70
2022/05/03 10:39:05;;;;;;;6.37;4.40;;;17.10;64.10;;;;;;4954310;28;20211;-70
2022/05/03 10:41:31;;;;;;;12.07;8.90;;;17.00;64.50;;;;;;4977668;28;20220;-70
2022/05/03 10:43:57;;;;;;;2.00;1.80;;;17.10;63.00;;;;;;4960080;28;21004;-69
2022/05/03 10:46:23;;;;;;;1.97;1.80;;;17.10;63.20;;;;;;4963313;28;20202;-75
2022/05/03 10:49:10;;;;;;;2.20;1.90;;;17.00;62.50;;;;;;4973334;28;20912;-70
2022/05/03 10:51:35;;;;;;;3.33;2.30;;;17.10;64.70;;;;;;4964034;28;20935;-71
2022/05/03 10:54:02;;;;;;;2.83;2.63;;;17.70;65.50;;;;;;4962078;28;20302;-70
2022/05/03 10:56:28;;;;;;;3.57;2.03;;;18.50;64.50;;;;;;4978466;28;20685;-69
2022/05/03 10:59:10;;;;;;;2.97;1.97;;;18.80;59.60;;;;;;4961278;28;20215;-69
2022/05/03 11:01:57;;;;;;;1.70;1.60;;;18.60;58.80;;;;;;4971744;28;20227;-77
2022/05/03 11:04:24;;;;;;;3.07;2.77;;;18.80;57.90;;;;;;4962406;28;20210;-71
2022/05/03 11:06:50;;;;;;;277.87;258.00;;;18.70;58.60;;;;;;4976862;28;20232;-71
2022/05/03 11:09:30;;;;;;;125.47;117.23;;;18.80;58.90;;;;;;4970288;28;20244;-71
2022/05/03 11:11:59;;;;;;;399.10;374.97;;;19.00;59.30;;;;;;4986944;28;20279;-71
2022/05/03 11:14:24;;;;;;;8.73;4.70;;;19.40;57.80;;;;;;4971350;28;20214;-68
2022/05/03 11:17:03;;;;;;;4.77;3.40;;;19.10;58.30;;;;;;4974314;28;20751;-71
2022/05/03 11:19:29;;;;;;;159.43;148.67;;;19.10;56.70;;;;;;4957099;28;20306;-71
2022/05/03 11:21:56;;;;;;;46.53;42.30;;;19.30;56.40;;;;;;4987438;28;20216;-70
2022/05/03 11:24:24;;;;;;;7.37;4.47;;;19.80;56.20;;;;;;4959239;28;20210;-72
2022/05/03 11:27:00;;;;;;;3.80;2.63;;;19.80;54.80;;;;;;4979871;28;20224;-73
2022/05/03 11:29:30;;;;;;;5.70;3.70;;;18.80;55.40;;;;;;4955583;28;20297;-71
2022/05/03 11:31:58;;;;;;;2.43;2.23;;;19.10;58.20;;;;;;4969402;28;20198;-74
2022/05/03 11:34:24;;;;;;;3.13;2.40;;;19.80;55.90;;;;;;4976372;28;20205;-70
2022/05/03 11:36:52;;;;;;;2.00;1.65;;;19.90;53.90;;;;;;4961565;28;20221;-72
2022/05/03 11:39:18;;;;;;;2.30;2.10;;;20.30;54.50;;;;;;4976910;28;20771;-72
2022/05/03 11:41:45;;;;;;;3.55;2.67;;;21.10;58.10;;;;;;4972151;28;20238;-72
2022/05/03 11:44:12;;;;;;;4.78;1.50;;;21.90;54.00;;;;;;4977348;28;20379;-74
2022/05/03 11:46:38;;;;;;;1.88;1.65;;;22.20;54.40;;;;;;4968624;28;20196;-71
2022/05/03 11:49:06;;;;;;;1.90;1.70;;;22.10;51.30;;;;;;4979186;28;20200;-71
2022/05/03 11:57:14;;;;;;;2.35;2.22;;;22.80;52.20;;;;;;4956745;28;20268;-70
2022/05/03 11:59:41;;;;;;;2.20;1.90;;;22.70;49.90;;;;;;4956121;28;20206;-65
2022/05/03 12:02:14;;;;;;;2.28;2.08;;;22.90;50.10;;;;;;4979983;28;20201;-72
2022/05/03 12:05:04;;;;;;;1.80;1.70;;;23.70;49.70;;;;;;4971982;28;20209;-73
2022/05/03 12:07:41;;;;;;;2.65;1.75;;;24.00;49.00;;;;;;4958350;28;20236;-70
2022/05/03 12:10:15;;;;;;;2.88;2.60;;;23.30;48.40;;;;;;4954256;28;20218;-66
2022/05/03 12:12:43;;;;;;;2.80;2.47;;;21.10;48.00;;;;;;4974979;28;20202;-71
2022/05/03 12:15:13;;;;;;;4.45;3.55;;;21.00;50.40;;;;;;4953529;28;20311;-70
2022/05/03 12:17:59;;;;;;;3.33;3.03;;;21.30;51.30;;;;;;4973816;28;20186;-71
2022/05/03 12:20:28;;;;;;;3.83;3.28;;;21.40;51.00;;;;;;4959072;28;20200;-73
2022/05/03 12:23:17;;;;;;;8.27;3.88;;;21.80;50.40;;;;;;4982012;28;20190;-71
2022/05/03 12:25:46;;;;;;;2.15;1.77;;;22.20;49.90;;;;;;4956737;28;20230;-72
2022/05/03 12:28:11;;;;;;;3.05;2.47;;;22.20;50.70;;;;;;4986602;28;20213;-72
2022/05/03 12:30:37;;;;;;;3.42;3.13;;;22.00;50.60;;;;;;4966342;28;20292;-72
2022/05/03 12:33:04;;;;;;;4.17;2.60;;;21.40;50.50;;;;;;4974627;28;20203;-74
2022/05/03 12:35:32;;;;;;;9.73;4.97;;;21.00;51.10;;;;;;4960736;28;20246;-70
2022/05/03 12:38:07;;;;;;;1.90;1.77;;;20.60;52.40;;;;;;4973562;28;20569;-73
2022/05/03 12:40:33;;;;;;;40.17;36.63;;;21.00;52.50;;;;;;4956414;28;20236;-71
2022/05/03 12:43:12;;;;;;;5.53;3.47;;;21.10;52.00;;;;;;4974992;28;20221;-71
2022/05/03 12:45:37;;;;;;;14.10;7.87;;;20.80;52.40;;;;;;4953941;28;20267;-71
2022/05/03 12:48:03;;;;;;;23.63;21.70;;;20.90;53.30;;;;;;4976029;28;20200;-70
2022/05/03 12:50:28;;;;;;;1.73;0.93;;;20.60;52.90;;;;;;4948919;28;20344;-74
2022/05/03 12:52:54;;;;;;;1.37;1.30;;;21.10;53.10;;;;;;4985638;28;20197;-73
2022/05/03 12:55:19;;;;;;;0.98;0.98;;;22.20;52.80;;;;;;4965384;28;20245;-72
2022/05/03 13:00:32;;;;;;;2.03;1.55;;;23.00;51.40;;;;;;4957956;28;20208;-69
2022/05/03 13:03:00;;;;;;;0.75;0.75;;;22.20;48.90;;;;;;4976790;28;20591;-69
2022/05/03 13:05:26;;;;;;;3.42;2.53;;;21.50;50.40;;;;;;4957430;28;20450;-72
2022/05/03 13:07:51;;;;;;;3.15;1.70;;;21.60;51.00;;;;;;4958117;28;20439;-72
2022/05/03 13:10:17;;;;;;;3.60;2.50;;;21.80;50.80;;;;;;4958293;28;20556;-72
2022/05/03 13:12:42;;;;;;;1.20;1.20;;;21.00;51.10;;;;;;4959775;28;20292;-71
2022/05/03 13:15:10;;;;;;;60.15;56.40;;;20.80;52.30;;;;;;4958593;28;20655;-70
2022/05/03 13:17:36;;;;;;;250.50;237.10;;;21.30;51.50;;;;;;4960304;28;20206;-73
2022/05/03 13:20:01;;;;;;;1.33;0.85;;;22.40;50.40;;;;;;4951044;28;20232;-72
2022/05/03 13:22:27;;;;;;;2.60;1.53;;;22.30;49.30;;;;;;4978939;28;20204;-72
2022/05/03 13:24:52;;;;;;;2.63;2.17;;;21.50;50.20;;;;;;4954488;28;20206;-72
2022/05/03 13:27:18;;;;;;;4.23;2.60;;;21.20;51.00;;;;;;4977463;28;20239;-72
2022/05/03 13:29:44;;;;;;;3.28;2.78;;;21.90;51.60;;;;;;4960524;28;20206;-72
2022/05/03 13:32:09;;;;;;;1054.17;975.80;;;23.00;49.90;;;;;;4973578;28;20680;-73
2022/05/03 13:34:35;;;;;;;189.95;179.15;;;24.30;48.80;;;;;;4964742;28;20291;-72
2022/05/03 13:42:29;;;;;;;6.43;3.67;;;22.40;50.60;;;;;;4946509;29;20270;-72